sensor_id;sensor_type;location;lat;lon;timestamp;temperature;humidity
15951;DHT22;8074;48.112;11.570;2022-10-18T00:01:48;12.10;99.90
15951;DHT22;8074;48.112;11.570;2022-10-18T00:04:15;12.00;99.90
15951;DHT22;8074;48.112;11.570;2022-10-18T00:06:42;12.20;99.90
15951;DHT22;8074;48.112;11.570;2022-10-18T00:09:09;12.00;99.90
15951;DHT22;8074;48.112;11.570;2022-10-18T00:11:36;11.70;99.90
15951;DHT22;8074;48.112;11.570;2022-10-18T00:14:03;11.70;99.90
15951;DHT22;8074;48.112;11.570;2022-10-18T00:16:31;11.90;99.90
15951;DHT22;8074;48.112;11.570;2022-10-18T00:18:58;11.70;99.90
15951;DHT22;8074;48.112;11.570;2022-10-18T00:21:25;11.70;99.90
15951;DHT22;8074;48.112;11.570;2022-10-18T00:23:53;11.90;99.90
15951;DHT22;8074;48.112;11.570;2022-10-18T00:26:21;11.90;99.90
15951;DHT22;8074;48.112;11.570;2022-10-18T00:28:50;11.70;99.90
15951;DHT22;8074;48.112;11.570;2022-10-18T00:31:20;11.90;99.90
15951;DHT22;8074;48.112;11.570;2022-10-18T00:33:51;11.90;99.90
15951;DHT22;8074;48.112;11.570;2022-10-18T00:36:19;11.80;99.90
15951;DHT22;8074;48.112;11.570;2022-10-18T00:38:47;11.60;99.90
15951;DHT22;8074;48.112;11.570;2022-10-18T00:41:26;11.60;99.90
15951;DHT22;8074;48.112;11.570;2022-10-18T00:43:56;11.50;99.90
15951;DHT22;8074;48.112;11.570;2022-10-18T00:46:25;11.60;99.90
15951;DHT22;8074;48.112;11.570;2022-10-18T00:48:55;11.80;99.90
15951;DHT22;8074;48.112;11.570;2022-10-18T00:51:23;11.80;99.90
15951;DHT22;8074;48.112;11.570;2022-10-18T00:53:51;11.70;99.90
15951;DHT22;8074;48.112;11.570;2022-10-18T00:56:18;11.40;99.90
15951;DHT22;8074;48.112;11.570;2022-10-18T00:58:47;11.20;99.90
15951;DHT22;8074;48.112;11.570;2022-10-18T01:01:14;11.20;99.90
15951;DHT22;8074;48.112;11.570;2022-10-18T01:03:41;11.30;99.90
15951;DHT22;8074;48.112;11.570;2022-10-18T01:06:09;11.50;99.90
15951;DHT22;8074;48.112;11.570;2022-10-18T01:08:44;11.50;99.90
15951;DHT22;8074;48.112;11.570;2022-10-18T01:11:25;11.30;99.90
15951;DHT22;8074;48.112;11.570;2022-10-18T01:14:02;10.90;99.90
15951;DHT22;8074;48.112;11.570;2022-10-18T01:16:35;10.90;99.90
15951;DHT22;8074;48.112;11.570;2022-10-18T01:19:23;11.10;99.90
15951;DHT22;8074;48.112;11.570;2022-10-18T01:21:55;11.20;99.90
15951;DHT22;8074;48.112;11.570;2022-10-18T01:24:46;11.40;99.90
15951;DHT22;8074;48.112;11.570;2022-10-18T01:27:44;11.50;99.90
15951;DHT22;8074;48.112;11.570;2022-10-18T01:30:37;11.50;99.90
15951;DHT22;8074;48.112;11.570;2022-10-18T01:33:14;11.50;99.90
15951;DHT22;8074;48.112;11.570;2022-10-18T01:35:48;11.40;99.90
15951;DHT22;8074;48.112;11.570;2022-10-18T01:38:18;11.40;99.90
15951;DHT22;8074;48.112;11.570;2022-10-18T01:40:47;11.30;99.90
15951;DHT22;8074;48.112;11.570;2022-10-18T01:43:15;11.20;99.90
15951;DHT22;8074;48.112;11.570;2022-10-18T01:45:44;11.00;99.90
15951;DHT22;8074;48.112;11.570;2022-10-18T01:48:12;11.10;99.90
15951;DHT22;8074;48.112;11.570;2022-10-18T01:50:39;10.90;99.90
15951;DHT22;8074;48.112;11.570;2022-10-18T01:53:23;10.90;99.90
15951;DHT22;8074;48.112;11.570;2022-10-18T01:56:08;11.00;99.90
15951;DHT22;8074;48.112;11.570;2022-10-18T01:58:43;11.10;99.90
15951;DHT22;8074;48.112;11.570;2022-10-18T02:01:19;11.30;99.90
15951;DHT22;8074;48.112;11.570;2022-10-18T02:03:55;11.20;99.90
15951;DHT22;8074;48.112;11.570;2022-10-18T02:06:28;11.20;99.90
15951;DHT22;8074;48.112;11.570;2022-10-18T02:09:01;11.00;99.90
15951;DHT22;8074;48.112;11.570;2022-10-18T02:11:31;10.80;99.90
15951;DHT22;8074;48.112;11.570;2022-10-18T02:14:02;10.60;99.90
15951;DHT22;8074;48.112;11.570;2022-10-18T02:16:36;10.70;99.90
15951;DHT22;8074;48.112;11.570;2022-10-18T02:19:08;10.80;99.90
15951;DHT22;8074;48.112;11.570;2022-10-18T02:21:37;10.80;99.90
15951;DHT22;8074;48.112;11.570;2022-10-18T02:24:06;10.60;99.90
15951;DHT22;8074;48.112;11.570;2022-10-18T02:26:34;10.60;99.90
15951;DHT22;8074;48.112;11.570;2022-10-18T02:29:01;10.70;99.90
15951;DHT22;8074;48.112;11.570;2022-10-18T02:31:33;10.60;99.90
15951;DHT22;8074;48.112;11.570;2022-10-18T02:34:06;10.60;99.90
15951;DHT22;8074;48.112;11.570;2022-10-18T02:36:37;10.90;99.90
15951;DHT22;8074;48.112;11.570;2022-10-18T02:39:17;11.00;99.90
15951;DHT22;8074;48.112;11.570;2022-10-18T02:41:44;10.80;99.90
15951;DHT22;8074;48.112;11.570;2022-10-18T02:44:12;10.50;99.90
15951;DHT22;8074;48.112;11.570;2022-10-18T02:46:40;10.50;99.90
15951;DHT22;8074;48.112;11.570;2022-10-18T02:49:07;10.50;99.90
15951;DHT22;8074;48.112;11.570;2022-10-18T02:51:34;10.80;99.90
15951;DHT22;8074;48.112;11.570;2022-10-18T02:54:01;10.90;99.90
15951;DHT22;8074;48.112;11.570;2022-10-18T02:56:28;10.80;99.90
15951;DHT22;8074;48.112;11.570;2022-10-18T02:58:55;10.50;99.90
15951;DHT22;8074;48.112;11.570;2022-10-18T03:01:22;10.20;99.90
15951;DHT22;8074;48.112;11.570;2022-10-18T03:03:50;10.40;99.90
15951;DHT22;8074;48.112;11.570;2022-10-18T03:06:17;10.40;99.90
15951;DHT22;8074;48.112;11.570;2022-10-18T03:08:44;10.40;99.90
15951;DHT22;8074;48.112;11.570;2022-10-18T03:11:11;10.40;99.90
15951;DHT22;8074;48.112;11.570;2022-10-18T03:13:38;10.30;99.90
15951;DHT22;8074;48.112;11.570;2022-10-18T03:16:05;10.50;99.90
15951;DHT22;8074;48.112;11.570;2022-10-18T03:18:32;10.60;99.90
15951;DHT22;8074;48.112;11.570;2022-10-18T03:21:03;10.20;99.90
15951;DHT22;8074;48.112;11.570;2022-10-18T03:23:29;10.00;99.90
15951;DHT22;8074;48.112;11.570;2022-10-18T03:25:56;10.10;99.90
15951;DHT22;8074;48.112;11.570;2022-10-18T03:28:23;10.10;99.90
15951;DHT22;8074;48.112;11.570;2022-10-18T03:30:50;10.40;99.90
15951;DHT22;8074;48.112;11.570;2022-10-18T03:33:17;10.50;99.90
15951;DHT22;8074;48.112;11.570;2022-10-18T03:35:44;10.30;99.90
15951;DHT22;8074;48.112;11.570;2022-10-18T03:38:12;10.20;99.90
15951;DHT22;8074;48.112;11.570;2022-10-18T03:40:39;10.50;99.90
15951;DHT22;8074;48.112;11.570;2022-10-18T03:43:07;10.50;99.90
15951;DHT22;8074;48.112;11.570;2022-10-18T03:45:34;10.60;99.90
15951;DHT22;8074;48.112;11.570;2022-10-18T03:48:01;10.60;99.90
15951;DHT22;8074;48.112;11.570;2022-10-18T03:50:28;10.40;99.90
15951;DHT22;8074;48.112;11.570;2022-10-18T03:52:54;10.40;99.90
15951;DHT22;8074;48.112;11.570;2022-10-18T03:55:23;10.30;99.90
15951;DHT22;8074;48.112;11.570;2022-10-18T03:57:49;10.30;99.90
15951;DHT22;8074;48.112;11.570;2022-10-18T04:00:16;10.40;99.90
15951;DHT22;8074;48.112;11.570;2022-10-18T04:02:43;10.40;99.90
15951;DHT22;8074;48.112;11.570;2022-10-18T04:05:10;10.40;99.90
15951;DHT22;8074;48.112;11.570;2022-10-18T04:07:37;10.40;99.90
15951;DHT22;8074;48.112;11.570;2022-10-18T04:10:05;10.30;99.90
15951;DHT22;8074;48.112;11.570;2022-10-18T04:12:33;10.30;99.90
15951;DHT22;8074;48.112;11.570;2022-10-18T04:15:00;10.40;99.90
15951;DHT22;8074;48.112;11.570;2022-10-18T04:17:27;10.40;99.90
15951;DHT22;8074;48.112;11.570;2022-10-18T04:19:54;10.40;99.90
15951;DHT22;8074;48.112;11.570;2022-10-18T04:22:21;10.30;99.90
15951;DHT22;8074;48.112;11.570;2022-10-18T04:24:47;10.30;99.90
15951;DHT22;8074;48.112;11.570;2022-10-18T04:27:14;10.30;99.90
15951;DHT22;8074;48.112;11.570;2022-10-18T04:29:43;10.30;99.90
15951;DHT22;8074;48.112;11.570;2022-10-18T04:32:10;10.30;99.90
15951;DHT22;8074;48.112;11.570;2022-10-18T04:34:37;10.50;99.90
15951;DHT22;8074;48.112;11.570;2022-10-18T04:37:04;10.40;99.90
15951;DHT22;8074;48.112;11.570;2022-10-18T04:39:31;10.40;99.90
15951;DHT22;8074;48.112;11.570;2022-10-18T04:41:58;10.40;99.90
15951;DHT22;8074;48.112;11.570;2022-10-18T04:44:25;10.80;99.90
15951;DHT22;8074;48.112;11.570;2022-10-18T04:46:53;10.80;99.90
15951;DHT22;8074;48.112;11.570;2022-10-18T04:49:20;10.80;99.90
15951;DHT22;8074;48.112;11.570;2022-10-18T04:51:47;10.70;99.90
15951;DHT22;8074;48.112;11.570;2022-10-18T04:54:14;10.60;99.90
15951;DHT22;8074;48.112;11.570;2022-10-18T04:56:41;10.60;99.90
15951;DHT22;8074;48.112;11.570;2022-10-18T04:59:08;10.70;99.90
15951;DHT22;8074;48.112;11.570;2022-10-18T05:01:35;10.80;99.90
15951;DHT22;8074;48.112;11.570;2022-10-18T05:04:03;10.60;99.90
15951;DHT22;8074;48.112;11.570;2022-10-18T05:06:30;10.70;99.90
15951;DHT22;8074;48.112;11.570;2022-10-18T05:08:57;10.90;99.90
15951;DHT22;8074;48.112;11.570;2022-10-18T05:11:24;11.00;99.90
15951;DHT22;8074;48.112;11.570;2022-10-18T05:13:51;10.80;99.90
15951;DHT22;8074;48.112;11.570;2022-10-18T05:16:18;10.60;99.90
15951;DHT22;8074;48.112;11.570;2022-10-18T05:18:48;10.30;99.90
15951;DHT22;8074;48.112;11.570;2022-10-18T05:21:16;10.60;99.90
15951;DHT22;8074;48.112;11.570;2022-10-18T05:23:43;10.70;99.90
15951;DHT22;8074;48.112;11.570;2022-10-18T05:26:10;10.60;99.90
15951;DHT22;8074;48.112;11.570;2022-10-18T05:28:37;10.60;99.90
15951;DHT22;8074;48.112;11.570;2022-10-18T05:31:05;10.60;99.90
15951;DHT22;8074;48.112;11.570;2022-10-18T05:33:33;10.60;99.90
15951;DHT22;8074;48.112;11.570;2022-10-18T05:36:00;10.70;99.90
15951;DHT22;8074;48.112;11.570;2022-10-18T05:38:28;11.00;99.90
15951;DHT22;8074;48.112;11.570;2022-10-18T05:40:55;11.20;99.90
15951;DHT22;8074;48.112;11.570;2022-10-18T05:43:22;11.40;99.90
15951;DHT22;8074;48.112;11.570;2022-10-18T05:45:50;11.20;99.90
15951;DHT22;8074;48.112;11.570;2022-10-18T05:48:17;11.10;99.90
15951;DHT22;8074;48.112;11.570;2022-10-18T05:50:44;11.00;99.90
15951;DHT22;8074;48.112;11.570;2022-10-18T05:53:11;11.00;99.90
15951;DHT22;8074;48.112;11.570;2022-10-18T05:55:39;11.30;99.90
15951;DHT22;8074;48.112;11.570;2022-10-18T05:58:06;11.60;99.90
15951;DHT22;8074;48.112;11.570;2022-10-18T06:00:33;11.70;99.90
15951;DHT22;8074;48.112;11.570;2022-10-18T06:03:00;11.60;99.90
15951;DHT22;8074;48.112;11.570;2022-10-18T06:05:27;11.50;99.90
15951;DHT22;8074;48.112;11.570;2022-10-18T06:07:55;11.70;99.90
15951;DHT22;8074;48.112;11.570;2022-10-18T06:10:22;11.80;99.90
15951;DHT22;8074;48.112;11.570;2022-10-18T06:12:51;12.10;99.90
15951;DHT22;8074;48.112;11.570;2022-10-18T06:15:18;12.00;99.90
15951;DHT22;8074;48.112;11.570;2022-10-18T06:17:45;12.10;99.90
15951;DHT22;8074;48.112;11.570;2022-10-18T06:20:21;12.10;99.90
15951;DHT22;8074;48.112;11.570;2022-10-18T06:23:12;12.00;99.90
15951;DHT22;8074;48.112;11.570;2022-10-18T06:39:14;13.20;99.90
15951;DHT22;8074;48.112;11.570;2022-10-18T06:41:50;13.10;99.90
15951;DHT22;8074;48.112;11.570;2022-10-18T06:44:32;13.10;99.90
15951;DHT22;8074;48.112;11.570;2022-10-18T06:47:03;13.20;99.90
15951;DHT22;8074;48.112;11.570;2022-10-18T06:55:17;13.40;99.90
15951;DHT22;8074;48.112;11.570;2022-10-18T07:00:30;13.50;99.90
15951;DHT22;8074;48.112;11.570;2022-10-18T07:09:13;13.50;99.90
15951;DHT22;8074;48.112;11.570;2022-10-18T07:14:08;14.00;99.90
15951;DHT22;8074;48.112;11.570;2022-10-18T07:16:39;14.20;99.90
15951;DHT22;8074;48.112;11.570;2022-10-18T07:19:06;14.00;99.90
15951;DHT22;8074;48.112;11.570;2022-10-18T07:21:36;14.10;99.90
15951;DHT22;8074;48.112;11.570;2022-10-18T07:24:03;14.30;99.90
15951;DHT22;8074;48.112;11.570;2022-10-18T07:26:31;14.50;99.90
15951;DHT22;8074;48.112;11.570;2022-10-18T07:29:00;14.30;99.90
15951;DHT22;8074;48.112;11.570;2022-10-18T07:31:41;14.40;99.90
15951;DHT22;8074;48.112;11.570;2022-10-18T07:34:11;14.90;99.90
15951;DHT22;8074;48.112;11.570;2022-10-18T07:36:39;14.90;99.90
15951;DHT22;8074;48.112;11.570;2022-10-18T07:39:06;15.40;99.90
15951;DHT22;8074;48.112;11.570;2022-10-18T07:41:33;15.60;99.90
15951;DHT22;8074;48.112;11.570;2022-10-18T07:44:01;15.70;99.90
15951;DHT22;8074;48.112;11.570;2022-10-18T07:46:33;15.60;99.90
15951;DHT22;8074;48.112;11.570;2022-10-18T07:49:01;15.60;99.90
15951;DHT22;8074;48.112;11.570;2022-10-18T07:51:30;15.60;99.90
15951;DHT22;8074;48.112;11.570;2022-10-18T07:53:59;15.80;99.90
15951;DHT22;8074;48.112;11.570;2022-10-18T07:56:26;16.00;99.90
15951;DHT22;8074;48.112;11.570;2022-10-18T07:58:54;16.00;99.90
15951;DHT22;8074;48.112;11.570;2022-10-18T08:01:22;16.00;99.90
15951;DHT22;8074;48.112;11.570;2022-10-18T08:03:51;16.00;99.90
15951;DHT22;8074;48.112;11.570;2022-10-18T08:06:20;16.00;99.90
15951;DHT22;8074;48.112;11.570;2022-10-18T08:08:47;16.00;99.90
15951;DHT22;8074;48.112;11.570;2022-10-18T08:11:17;16.00;99.90
15951;DHT22;8074;48.112;11.570;2022-10-18T08:13:45;16.30;99.90
15951;DHT22;8074;48.112;11.570;2022-10-18T08:16:35;16.20;99.90
15951;DHT22;8074;48.112;11.570;2022-10-18T08:19:06;16.40;99.90
15951;DHT22;8074;48.112;11.570;2022-10-18T08:21:40;16.70;99.90
15951;DHT22;8074;48.112;11.570;2022-10-18T08:24:19;17.10;99.90
15951;DHT22;8074;48.112;11.570;2022-10-18T08:26:56;17.50;99.90
15951;DHT22;8074;48.112;11.570;2022-10-18T08:29:47;18.20;99.90
15951;DHT22;8074;48.112;11.570;2022-10-18T08:32:31;18.40;99.90
15951;DHT22;8074;48.112;11.570;2022-10-18T08:35:29;18.10;99.90
15951;DHT22;8074;48.112;11.570;2022-10-18T08:38:10;18.00;99.90
15951;DHT22;8074;48.112;11.570;2022-10-18T08:40:42;18.30;99.90
15951;DHT22;8074;48.112;11.570;2022-10-18T08:43:28;19.20;99.90
15951;DHT22;8074;48.112;11.570;2022-10-18T08:46:13;19.80;99.90
15951;DHT22;8074;48.112;11.570;2022-10-18T08:48:43;20.00;99.90
15951;DHT22;8074;48.112;11.570;2022-10-18T08:51:26;20.30;99.90
15951;DHT22;8074;48.112;11.570;2022-10-18T08:54:01;21.10;99.90
15951;DHT22;8074;48.112;11.570;2022-10-18T08:56:30;20.80;99.90
15951;DHT22;8074;48.112;11.570;2022-10-18T08:59:00;21.40;99.90
15951;DHT22;8074;48.112;11.570;2022-10-18T09:01:38;22.10;99.90
15951;DHT22;8074;48.112;11.570;2022-10-18T09:04:38;22.50;99.90
15951;DHT22;8074;48.112;11.570;2022-10-18T09:07:23;23.10;99.90
15951;DHT22;8074;48.112;11.570;2022-10-18T09:09:56;23.30;99.90
15951;DHT22;8074;48.112;11.570;2022-10-18T09:12:43;23.90;99.90
15951;DHT22;8074;48.112;11.570;2022-10-18T09:15:20;23.90;99.90
15951;DHT22;8074;48.112;11.570;2022-10-18T09:18:02;23.40;99.90
15951;DHT22;8074;48.112;11.570;2022-10-18T09:20:41;22.70;99.90
15951;DHT22;8074;48.112;11.570;2022-10-18T09:23:18;22.10;99.90
15951;DHT22;8074;48.112;11.570;2022-10-18T09:25:46;22.00;99.90
15951;DHT22;8074;48.112;11.570;2022-10-18T09:28:18;22.20;99.90
15951;DHT22;8074;48.112;11.570;2022-10-18T09:30:53;23.00;99.90
15951;DHT22;8074;48.112;11.570;2022-10-18T09:33:33;24.50;99.90
15951;DHT22;8074;48.112;11.570;2022-10-18T09:36:05;25.00;99.90
15951;DHT22;8074;48.112;11.570;2022-10-18T09:38:43;25.20;99.90
15951;DHT22;8074;48.112;11.570;2022-10-18T09:41:17;25.60;99.90
15951;DHT22;8074;48.112;11.570;2022-10-18T09:43:49;26.90;99.90
15951;DHT22;8074;48.112;11.570;2022-10-18T09:46:19;26.90;99.90
15951;DHT22;8074;48.112;11.570;2022-10-18T09:48:50;26.10;99.90
15951;DHT22;8074;48.112;11.570;2022-10-18T09:51:20;25.40;99.90
15951;DHT22;8074;48.112;11.570;2022-10-18T09:53:58;24.30;99.90
15951;DHT22;8074;48.112;11.570;2022-10-18T09:56:29;23.90;99.90
15951;DHT22;8074;48.112;11.570;2022-10-18T09:58:58;23.10;99.90
15951;DHT22;8074;48.112;11.570;2022-10-18T10:01:28;22.90;99.90
15951;DHT22;8074;48.112;11.570;2022-10-18T10:03:56;23.50;99.90
15951;DHT22;8074;48.112;11.570;2022-10-18T10:06:25;23.90;99.90
15951;DHT22;8074;48.112;11.570;2022-10-18T10:09:04;24.20;99.90
15951;DHT22;8074;48.112;11.570;2022-10-18T10:11:34;24.50;99.90
15951;DHT22;8074;48.112;11.570;2022-10-18T10:14:16;24.40;99.90
15951;DHT22;8074;48.112;11.570;2022-10-18T10:16:47;24.70;99.90
15951;DHT22;8074;48.112;11.570;2022-10-18T10:19:17;24.70;99.90
15951;DHT22;8074;48.112;11.570;2022-10-18T10:21:53;24.50;99.90
15951;DHT22;8074;48.112;11.570;2022-10-18T10:24:28;24.20;99.90
15951;DHT22;8074;48.112;11.570;2022-10-18T10:27:02;23.90;99.90
15951;DHT22;8074;48.112;11.570;2022-10-18T10:29:53;23.50;99.90
15951;DHT22;8074;48.112;11.570;2022-10-18T10:32:46;23.40;99.90
15951;DHT22;8074;48.112;11.570;2022-10-18T10:35:28;23.50;99.90
15951;DHT22;8074;48.112;11.570;2022-10-18T10:37:56;23.10;99.90
15951;DHT22;8074;48.112;11.570;2022-10-18T10:40:25;23.10;99.90
15951;DHT22;8074;48.112;11.570;2022-10-18T10:43:06;23.70;99.90
15951;DHT22;8074;48.112;11.570;2022-10-18T10:45:53;24.20;99.90
15951;DHT22;8074;48.112;11.570;2022-10-18T10:48:20;24.10;99.90
15951;DHT22;8074;48.112;11.570;2022-10-18T10:50:54;24.20;99.90
15951;DHT22;8074;48.112;11.570;2022-10-18T10:53:27;24.40;99.90
15951;DHT22;8074;48.112;11.570;2022-10-18T10:55:57;24.20;99.90
15951;DHT22;8074;48.112;11.570;2022-10-18T10:58:26;24.30;99.90
15951;DHT22;8074;48.112;11.570;2022-10-18T11:00:55;24.20;99.90
15951;DHT22;8074;48.112;11.570;2022-10-18T11:03:23;23.50;99.90
15951;DHT22;8074;48.112;11.570;2022-10-18T11:05:51;23.80;99.90
15951;DHT22;8074;48.112;11.570;2022-10-18T11:08:22;24.00;99.90
15951;DHT22;8074;48.112;11.570;2022-10-18T11:11:06;24.40;99.90
15951;DHT22;8074;48.112;11.570;2022-10-18T11:13:45;24.70;99.90
15951;DHT22;8074;48.112;11.570;2022-10-18T11:16:19;25.30;99.90
15951;DHT22;8074;48.112;11.570;2022-10-18T11:18:51;26.50;99.90
15951;DHT22;8074;48.112;11.570;2022-10-18T11:21:23;27.70;99.90
15951;DHT22;8074;48.112;11.570;2022-10-18T11:23:51;28.30;99.90
15951;DHT22;8074;48.112;11.570;2022-10-18T11:26:37;28.00;99.90
15951;DHT22;8074;48.112;11.570;2022-10-18T11:29:24;28.00;99.90
15951;DHT22;8074;48.112;11.570;2022-10-18T11:32:04;28.10;99.90
15951;DHT22;8074;48.112;11.570;2022-10-18T11:34:53;28.90;99.90
15951;DHT22;8074;48.112;11.570;2022-10-18T11:37:40;29.00;99.90
15951;DHT22;8074;48.112;11.570;2022-10-18T11:40:26;29.20;99.90
15951;DHT22;8074;48.112;11.570;2022-10-18T11:43:04;28.50;99.90
15951;DHT22;8074;48.112;11.570;2022-10-18T11:45:40;27.60;99.90
15951;DHT22;8074;48.112;11.570;2022-10-18T11:51:06;26.50;99.90
15951;DHT22;8074;48.112;11.570;2022-10-18T11:53:41;25.80;99.90
15951;DHT22;8074;48.112;11.570;2022-10-18T11:56:17;25.70;99.90
15951;DHT22;8074;48.112;11.570;2022-10-18T11:59:01;25.90;99.90
15951;DHT22;8074;48.112;11.570;2022-10-18T12:01:36;26.40;99.90
15951;DHT22;8074;48.112;11.570;2022-10-18T12:04:09;26.10;99.90
15951;DHT22;8074;48.112;11.570;2022-10-18T12:06:40;25.70;99.90
15951;DHT22;8074;48.112;11.570;2022-10-18T12:09:24;25.70;99.90
15951;DHT22;8074;48.112;11.570;2022-10-18T12:11:53;25.60;99.90
15951;DHT22;8074;48.112;11.570;2022-10-18T12:14:26;26.10;99.90
15951;DHT22;8074;48.112;11.570;2022-10-18T12:16:59;25.60;99.90
15951;DHT22;8074;48.112;11.570;2022-10-18T12:19:28;26.20;99.90
15951;DHT22;8074;48.112;11.570;2022-10-18T12:22:07;26.80;99.90
15951;DHT22;8074;48.112;11.570;2022-10-18T12:24:36;27.50;99.90
15951;DHT22;8074;48.112;11.570;2022-10-18T12:27:04;26.60;99.90
15951;DHT22;8074;48.112;11.570;2022-10-18T12:29:38;26.50;99.90
15951;DHT22;8074;48.112;11.570;2022-10-18T12:32:12;26.40;99.90
15951;DHT22;8074;48.112;11.570;2022-10-18T12:34:43;27.20;99.90
15951;DHT22;8074;48.112;11.570;2022-10-18T12:37:36;27.60;99.90
15951;DHT22;8074;48.112;11.570;2022-10-18T12:40:12;28.40;99.90
15951;DHT22;8074;48.112;11.570;2022-10-18T12:42:46;28.80;99.90
15951;DHT22;8074;48.112;11.570;2022-10-18T12:45:28;30.10;99.90
15951;DHT22;8074;48.112;11.570;2022-10-18T12:48:03;30.50;99.90
15951;DHT22;8074;48.112;11.570;2022-10-18T12:50:34;31.10;99.90
15951;DHT22;8074;48.112;11.570;2022-10-18T12:53:04;30.70;99.90
15951;DHT22;8074;48.112;11.570;2022-10-18T12:55:33;31.20;99.90
15951;DHT22;8074;48.112;11.570;2022-10-18T12:58:23;31.80;99.90
15951;DHT22;8074;48.112;11.570;2022-10-18T13:00:57;31.60;99.90
15951;DHT22;8074;48.112;11.570;2022-10-18T13:03:51;31.80;99.90
15951;DHT22;8074;48.112;11.570;2022-10-18T13:06:19;31.80;99.90
15951;DHT22;8074;48.112;11.570;2022-10-18T13:08:46;29.80;99.90
15951;DHT22;8074;48.112;11.570;2022-10-18T13:11:32;29.60;99.90
15951;DHT22;8074;48.112;11.570;2022-10-18T13:17:22;30.60;99.90
15951;DHT22;8074;48.112;11.570;2022-10-18T13:19:58;30.20;99.90
15951;DHT22;8074;48.112;11.570;2022-10-18T13:22:48;31.80;99.90
15951;DHT22;8074;48.112;11.570;2022-10-18T13:25:27;33.00;99.90
15951;DHT22;8074;48.112;11.570;2022-10-18T13:27:59;31.50;99.90
15951;DHT22;8074;48.112;11.570;2022-10-18T13:30:39;29.30;99.90
15951;DHT22;8074;48.112;11.570;2022-10-18T13:33:34;27.20;99.90
15951;DHT22;8074;48.112;11.570;2022-10-18T13:36:04;26.90;99.90
15951;DHT22;8074;48.112;11.570;2022-10-18T13:38:41;27.50;99.90
15951;DHT22;8074;48.112;11.570;2022-10-18T13:41:13;27.30;99.90
15951;DHT22;8074;48.112;11.570;2022-10-18T13:44:10;26.10;99.90
15951;DHT22;8074;48.112;11.570;2022-10-18T13:53:10;26.40;99.90
15951;DHT22;8074;48.112;11.570;2022-10-18T13:55:56;26.70;99.90
15951;DHT22;8074;48.112;11.570;2022-10-18T13:58:33;26.20;99.90
15951;DHT22;8074;48.112;11.570;2022-10-18T14:01:15;25.80;99.90
15951;DHT22;8074;48.112;11.570;2022-10-18T14:04:01;25.90;99.90
15951;DHT22;8074;48.112;11.570;2022-10-18T14:06:34;25.50;99.90
15951;DHT22;8074;48.112;11.570;2022-10-18T14:09:05;24.70;99.90
15951;DHT22;8074;48.112;11.570;2022-10-18T14:11:38;24.40;99.90
15951;DHT22;8074;48.112;11.570;2022-10-18T14:14:12;24.20;99.90
15951;DHT22;8074;48.112;11.570;2022-10-18T14:16:46;24.00;99.90
15951;DHT22;8074;48.112;11.570;2022-10-18T14:19:18;23.70;99.90
15951;DHT22;8074;48.112;11.570;2022-10-18T14:21:52;23.30;99.90
15951;DHT22;8074;48.112;11.570;2022-10-18T14:24:23;23.00;99.90
15951;DHT22;8074;48.112;11.570;2022-10-18T14:27:11;22.90;99.90
15951;DHT22;8074;48.112;11.570;2022-10-18T14:29:39;22.70;99.90
15951;DHT22;8074;48.112;11.570;2022-10-18T14:32:16;22.60;99.90
15951;DHT22;8074;48.112;11.570;2022-10-18T14:34:44;22.50;99.90
15951;DHT22;8074;48.112;11.570;2022-10-18T14:37:20;22.30;99.90
15951;DHT22;8074;48.112;11.570;2022-10-18T14:39:51;21.90;99.90
15951;DHT22;8074;48.112;11.570;2022-10-18T14:42:21;21.70;99.90
15951;DHT22;8074;48.112;11.570;2022-10-18T14:44:49;22.00;99.90
15951;DHT22;8074;48.112;11.570;2022-10-18T14:47:19;22.30;99.90
15951;DHT22;8074;48.112;11.570;2022-10-18T14:49:49;22.90;99.90
15951;DHT22;8074;48.112;11.570;2022-10-18T14:52:19;23.30;99.90
15951;DHT22;8074;48.112;11.570;2022-10-18T14:54:47;23.90;99.90
15951;DHT22;8074;48.112;11.570;2022-10-18T14:57:18;23.90;99.90
15951;DHT22;8074;48.112;11.570;2022-10-18T14:59:48;23.70;99.90
15951;DHT22;8074;48.112;11.570;2022-10-18T15:02:21;23.60;99.90
15951;DHT22;8074;48.112;11.570;2022-10-18T15:04:55;23.30;99.90
15951;DHT22;8074;48.112;11.570;2022-10-18T15:07:26;22.90;99.90
15951;DHT22;8074;48.112;11.570;2022-10-18T15:09:57;22.70;99.90
15951;DHT22;8074;48.112;11.570;2022-10-18T15:12:26;22.20;99.90
15951;DHT22;8074;48.112;11.570;2022-10-18T15:14:54;22.20;99.90
15951;DHT22;8074;48.112;11.570;2022-10-18T15:17:25;21.90;99.90
15951;DHT22;8074;48.112;11.570;2022-10-18T15:19:55;21.70;99.90
15951;DHT22;8074;48.112;11.570;2022-10-18T15:22:27;21.60;99.90
15951;DHT22;8074;48.112;11.570;2022-10-18T15:25:12;21.50;99.90
15951;DHT22;8074;48.112;11.570;2022-10-18T15:27:43;21.40;99.90
15951;DHT22;8074;48.112;11.570;2022-10-18T15:30:20;21.50;99.90
15951;DHT22;8074;48.112;11.570;2022-10-18T15:32:50;21.30;99.90
15951;DHT22;8074;48.112;11.570;2022-10-18T15:35:21;21.20;99.90
15951;DHT22;8074;48.112;11.570;2022-10-18T15:37:50;21.20;99.90
15951;DHT22;8074;48.112;11.570;2022-10-18T15:40:29;21.20;99.90
15951;DHT22;8074;48.112;11.570;2022-10-18T15:42:58;21.10;99.90
15951;DHT22;8074;48.112;11.570;2022-10-18T15:45:30;21.10;99.90
15951;DHT22;8074;48.112;11.570;2022-10-18T15:48:15;21.20;99.90
15951;DHT22;8074;48.112;11.570;2022-10-18T15:50:45;21.10;99.90
15951;DHT22;8074;48.112;11.570;2022-10-18T15:53:30;21.00;99.90
15951;DHT22;8074;48.112;11.570;2022-10-18T15:55:59;21.10;99.90
15951;DHT22;8074;48.112;11.570;2022-10-18T15:58:28;20.90;99.90
15951;DHT22;8074;48.112;11.570;2022-10-18T16:00:58;21.00;99.90
15951;DHT22;8074;48.112;11.570;2022-10-18T16:03:26;20.90;99.90
15951;DHT22;8074;48.112;11.570;2022-10-18T16:05:57;20.90;99.90
15951;DHT22;8074;48.112;11.570;2022-10-18T16:08:27;20.80;99.90
15951;DHT22;8074;48.112;11.570;2022-10-18T16:10:55;20.80;99.90
15951;DHT22;8074;48.112;11.570;2022-10-18T16:13:23;20.90;99.90
15951;DHT22;8074;48.112;11.570;2022-10-18T16:15:51;20.80;99.90
15951;DHT22;8074;48.112;11.570;2022-10-18T16:18:20;20.60;99.90
15951;DHT22;8074;48.112;11.570;2022-10-18T16:20:47;20.60;99.90
15951;DHT22;8074;48.112;11.570;2022-10-18T16:23:17;20.50;99.90
15951;DHT22;8074;48.112;11.570;2022-10-18T16:25:46;20.30;99.90
15951;DHT22;8074;48.112;11.570;2022-10-18T16:28:14;20.30;99.90
15951;DHT22;8074;48.112;11.570;2022-10-18T16:30:44;20.20;99.90
15951;DHT22;8074;48.112;11.570;2022-10-18T16:33:14;20.20;99.90
15951;DHT22;8074;48.112;11.570;2022-10-18T16:35:41;19.90;99.90
15951;DHT22;8074;48.112;11.570;2022-10-18T16:38:24;19.80;99.90
15951;DHT22;8074;48.112;11.570;2022-10-18T16:40:53;19.70;99.90
15951;DHT22;8074;48.112;11.570;2022-10-18T16:43:20;19.60;99.90
15951;DHT22;8074;48.112;11.570;2022-10-18T16:45:47;19.20;99.90